Time;durP1;ratioP1;P1;durP2;ratioP2;P2;SDS_P1;SDS_P2;PMS_P1;PMS_P2;Temp;Humidity;BMP_temperature;BMP_pressure;BME280_temperature;BME280_humidity;BME280_pressure;Samples;Min_cycle;Max_cycle;Signal;HPM_P1;HPM_P2
2023/03/02 00:00:21;;;;;;;;;;;;;;;;;;1036627;28;2794;-51
2023/03/02 00:01:11;;;;;;;;;;;;;;;;;;1046735;28;4267;-48
2023/03/02 00:01:47;;;;;;;;;;;;;;;;;;1045325;28;4464;-47
2023/03/02 00:02:20;;;;;;;;;;;;;;;;;;1045703;28;1992;-48
2023/03/02 00:02:50;;;;;;;;;;;;;;;;;;1038531;28;4034;-48
2023/03/02 00:03:20;;;;;;;;;;;;;;;;;;1037226;28;3121;-48
2023/03/02 00:03:51;;;;;;;;;;;;;;;;;;1037827;28;4009;-47
2023/03/02 00:04:23;;;;;;;;;;;;;;;;;;1037410;28;3056;-47
2023/03/02 00:04:55;;;;;;;;;;;;;;;;;;1036602;28;4050;-48
2023/03/02 00:05:26;;;;;;;;;;;;;;;;;;1037353;28;2828;-50
2023/03/02 00:05:57;;;;;;;;;;;;;;;;;;1036963;28;4109;-49
2023/03/02 00:06:28;;;;;;;;;;;;;;;;;;1038905;28;1684;-48
2023/03/02 00:07:00;;;;;;;;;;;;;;;;;;1037977;28;3991;-48
2023/03/02 00:07:32;;;;;;;;;;;;;;;;;;1039114;28;1399;-48
2023/03/02 00:08:02;;;;;;;;;;;;;;;;;;1035817;28;3909;-51
2023/03/02 00:08:33;;;;;;;;;;;;;;;;;;1037770;28;3054;-48
2023/03/02 00:09:04;;;;;;;;;;;;;;;;;;1038061;28;3820;-47
2023/03/02 00:09:35;;;;;;;;;;;;;;;;;;1036521;28;4044;-48
2023/03/02 00:10:06;;;;;;;;;;;;;;;;;;1037571;28;1819;-51
2023/03/02 00:10:37;;;;;;;;;;;;;;;;;;1037307;28;3976;-47
2023/03/02 00:11:07;;;;;;;;;;;;;;;;;;1038749;28;1759;-48
2023/03/02 00:11:38;;;;;;;;;;;;;;;;;;1036827;28;4062;-49
2023/03/02 00:12:08;;;;;;;;;;;;;;;;;;1037374;28;2631;-49
2023/03/02 00:12:39;;;;;;;;;;;;;;;;;;1036200;28;4206;-48
2023/03/02 00:13:10;;;;;;;;;;;;;;;;;;1038898;28;2840;-49
2023/03/02 00:13:40;;;;;;;;;;;;;;;;;;1036826;28;4025;-47
2023/03/02 00:14:11;;;;;;;;;;;;;;;;;;1037084;28;2516;-51
2023/03/02 00:14:41;;;;;;;;;;;;;;;;;;1037429;28;3885;-49
2023/03/02 00:15:11;;;;;;;;;;;;;;;;;;1037237;28;2845;-47
2023/03/02 00:15:42;;;;;;;;;;;;;;;;;;1037834;28;3877;-48
2023/03/02 00:16:12;;;;;;;;;;;;;;;;;;1038393;28;2692;-49
2023/03/02 00:16:42;;;;;;;;;;;;;;;;;;1037369;28;4040;-47
2023/03/02 00:17:12;;;;;;;;;;;;;;;;;;1037259;28;2275;-48
2023/03/02 00:17:43;;;;;;;;;;;;;;;;;;1037178;28;4028;-51
2023/03/02 00:18:13;;;;;;;;;;;;;;;;;;1036483;28;3023;-49
2023/03/02 00:18:43;;;;;;;;;;;;;;;;;;1037723;28;4100;-48
2023/03/02 00:19:13;;;;;;;;;;;;;;;;;;1038728;28;1655;-49
2023/03/02 00:19:44;;;;;;;;;;;;;;;;;;1038046;28;4014;-49
2023/03/02 00:20:14;;;;;;;;;;;;;;;;;;1036548;28;3446;-48
2023/03/02 00:20:44;;;;;;;;;;;;;;;;;;1037161;28;3889;-48
2023/03/02 00:21:15;;;;;;;;;;;;;;;;;;1038458;28;1775;-50
2023/03/02 00:21:45;;;;;;;;;;;;;;;;;;1037872;28;4054;-48
2023/03/02 00:22:15;;;;;;;;;;;;;;;;;;1037216;28;2797;-49
2023/03/02 00:22:46;;;;;;;;;;;;;;;;;;1040007;28;4028;-52
2023/03/02 00:23:16;;;;;;;;;;;;;;;;;;1038791;28;1670;-50
2023/03/02 00:23:48;;;;;;;;;;;;;;;;;;1037774;28;4116;-47
2023/03/02 00:24:18;;;;;;;;;;;;;;;;;;1038236;28;2681;-48
2023/03/02 00:24:48;;;;;;;;;;;;;;;;;;1036589;28;3897;-50
2023/03/02 00:25:18;;;;;;;;;;;;;;;;;;1038742;28;2134;-50
2023/03/02 00:25:49;;;;;;;;;;;;;;;;;;1037697;28;4160;-48
2023/03/02 00:26:19;;;;;;;;;;;;;;;;;;1037554;28;2550;-49
2023/03/02 00:26:49;;;;;;;;;;;;;;;;;;1038196;28;4053;-51
2023/03/02 00:27:21;;;;;;;;;;;;;;;;;;1036136;28;2753;-49
2023/03/02 00:27:51;;;;;;;;;;;;;;;;;;1033939;28;4201;-48
2023/03/02 00:28:21;;;;;;;;;;;;;;;;;;1037509;28;2881;-52
2023/03/02 00:28:52;;;;;;;;;;;;;;;;;;1037510;28;4133;-49
2023/03/02 00:29:22;;;;;;;;;;;;;;;;;;1036984;28;2927;-49
2023/03/02 00:29:52;;;;;;;;;;;;;;;;;;1037131;28;3874;-51
2023/03/02 00:30:22;;;;;;;;;;;;;;;;;;1035520;28;2846;-48
2023/03/02 00:30:53;;;;;;;;;;;;;;;;;;1037438;28;3888;-48
2023/03/02 00:31:23;;;;;;;;;;;;;;;;;;1038585;28;1988;-51
2023/03/02 00:31:53;;;;;;;;;;;;;;;;;;1037359;28;4040;-49
2023/03/02 00:32:23;;;;;;;;;;;;;;;;;;1036389;28;2890;-48
2023/03/02 00:32:54;;;;;;;;;;;;;;;;;;1037899;28;3918;-47
2023/03/02 00:33:24;;;;;;;;;;;;;;;;;;1038716;28;1803;-48
2023/03/02 00:33:54;;;;;;;;;;;;;;;;;;1037672;28;4049;-50
2023/03/02 00:34:24;;;;;;;;;;;;;;;;;;1038046;28;1791;-48
2023/03/02 00:34:55;;;;;;;;;;;;;;;;;;1037707;28;4238;-48
2023/03/02 00:35:25;;;;;;;;;;;;;;;;;;1037406;28;2787;-47
2023/03/02 00:35:56;;;;;;;;;;;;;;;;;;1037987;28;3884;-49
2023/03/02 00:36:26;;;;;;;;;;;;;;;;;;1037771;28;1800;-47
2023/03/02 00:36:57;;;;;;;;;;;;;;;;;;1037990;28;3934;-49
2023/03/02 00:37:27;;;;;;;;;;;;;;;;;;1036205;28;2131;-47
2023/03/02 00:37:57;;;;;;;;;;;;;;;;;;1035433;28;4114;-51
2023/03/02 00:38:27;;;;;;;;;;;;;;;;;;1037780;28;1699;-47
2023/03/02 00:38:58;;;;;;;;;;;;;;;;;;1039009;28;3889;-50
2023/03/02 00:39:29;;;;;;;;;;;;;;;;;;1037554;28;2891;-50
2023/03/02 00:39:59;;;;;;;;;;;;;;;;;;1037781;28;3919;-48
2023/03/02 00:40:29;;;;;;;;;;;;;;;;;;1039392;28;2418;-48
2023/03/02 00:41:00;;;;;;;;;;;;;;;;;;1038045;28;3886;-48
2023/03/02 00:41:30;;;;;;;;;;;;;;;;;;1036315;28;2507;-50
2023/03/02 00:42:00;;;;;;;;;;;;;;;;;;1038256;28;3791;-48
2023/03/02 00:42:31;;;;;;;;;;;;;;;;;;1039403;28;2270;-47
2023/03/02 00:43:01;;;;;;;;;;;;;;;;;;1037437;28;3959;-47
2023/03/02 00:43:31;;;;;;;;;;;;;;;;;;1038189;28;2967;-52
2023/03/02 00:44:01;;;;;;;;;;;;;;;;;;1037909;28;4308;-48
2023/03/02 00:44:32;;;;;;;;;;;;;;;;;;1039568;28;1893;-51
2023/03/02 00:45:03;;;;;;;;;;;;;;;;;;1038482;28;3938;-49
2023/03/02 00:45:33;;;;;;;;;;;;;;;;;;1038373;28;3995;-47
2023/03/02 00:46:14;;;;;;;;;;;;;;;;;;1038758;28;2872;-48
2023/03/02 00:46:44;;;;;;;;;;;;;;;;;;1038043;28;4069;-52
2023/03/02 00:47:14;;;;;;;;;;;;;;;;;;1042480;28;1846;-48
2023/03/02 00:47:45;;;;;;;;;;;;;;;;;;1041624;28;3804;-48
2023/03/02 00:48:15;;;;;;;;;;;;;;;;;;1041999;28;2920;-49
2023/03/02 00:48:45;;;;;;;;;;;;;;;;;;1041304;28;3792;-46
2023/03/02 00:49:15;;;;;;;;;;;;;;;;;;1039482;28;1937;-49
2023/03/02 00:49:48;;;;;;;;;;;;;;;;;;1038405;28;4022;-49
2023/03/02 00:50:18;;;;;;;;;;;;;;;;;;1037155;28;2918;-48
2023/03/02 00:50:48;;;;;;;;;;;;;;;;;;1038577;28;3952;-51
2023/03/02 00:51:19;;;;;;;;;;;;;;;;;;1036466;28;2521;-51
2023/03/02 00:51:49;;;;;;;;;;;;;;;;;;1041193;28;5089;-47
2023/03/02 00:52:19;;;;;;;;;;;;;;;;;;1043520;28;1798;-49
2023/03/02 00:52:50;;;;;;;;;;;;;;;;;;1043311;28;4049;-48
2023/03/02 00:53:20;;;;;;;;;;;;;;;;;;1043300;28;2587;-50
2023/03/02 00:53:50;;;;;;;;;;;;;;;;;;1041541;28;3801;-49
2023/03/02 00:54:20;;;;;;;;;;;;;;;;;;1042557;28;2850;-48
2023/03/02 00:54:51;;;;;;;;;;;;;;;;;;1042850;28;4371;-48
2023/03/02 00:55:21;;;;;;;;;;;;;;;;;;1043123;28;1910;-47
2023/03/02 00:55:53;;;;;;;;;;;;;;;;;;1041103;28;4043;-46
2023/03/02 00:56:23;;;;;;;;;;;;;;;;;;1042160;28;2801;-48
2023/03/02 00:56:53;;;;;;;;;;;;;;;;;;1042961;28;4047;-48
2023/03/02 00:57:23;;;;;;;;;;;;;;;;;;1043929;28;1657;-48
2023/03/02 00:57:54;;;;;;;;;;;;;;;;;;1039585;28;4048;-48
2023/03/02 00:58:25;;;;;;;;;;;;;;;;;;1039216;28;1812;-51
2023/03/02 00:58:55;;;;;;;;;;;;;;;;;;1041459;28;3987;-50
2023/03/02 00:59:25;;;;;;;;;;;;;;;;;;1041317;28;2762;-49
2023/03/02 00:59:56;;;;;;;;;;;;;;;;;;1042006;28;3947;-48
2023/03/02 01:00:27;;;;;;;;;;;;;;;;;;1041892;28;3055;-50
2023/03/02 01:00:58;;;;;;;;;;;;;;;;;;1042876;28;3871;-47
2023/03/02 01:01:28;;;;;;;;;;;;;;;;;;1042028;28;2236;-50
2023/03/02 01:01:59;;;;;;;;;;;;;;;;;;1042387;28;4023;-49
2023/03/02 01:02:30;;;;;;;;;;;;;;;;;;1043510;28;1733;-48
2023/03/02 01:03:00;;;;;;;;;;;;;;;;;;1039903;28;3909;-49
2023/03/02 01:03:30;;;;;;;;;;;;;;;;;;1043214;28;1663;-48
2023/03/02 01:04:01;;;;;;;;;;;;;;;;;;1041420;28;3950;-48
2023/03/02 01:04:51;;;;;;;;;;;;;;;;;;1043168;28;2733;-48
2023/03/02 01:05:22;;;;;;;;;;;;;;;;;;1041281;28;3829;-49
2023/03/02 01:05:54;;;;;;;;;;;;;;;;;;1042687;28;3921;-48
2023/03/02 01:06:24;;;;;;;;;;;;;;;;;;1042912;28;1858;-46
2023/03/02 01:06:55;;;;;;;;;;;;;;;;;;1042265;28;3894;-48
2023/03/02 01:07:27;;;;;;;;;;;;;;;;;;1043775;28;1836;-48
2023/03/02 01:07:57;;;;;;;;;;;;;;;;;;1040371;28;3775;-47
2023/03/02 01:08:27;;;;;;;;;;;;;;;;;;1042621;28;2838;-51
2023/03/02 01:08:57;;;;;;;;;;;;;;;;;;1043061;28;3967;-50
2023/03/02 01:09:28;;;;;;;;;;;;;;;;;;1042088;28;2403;-50
2023/03/02 01:09:58;;;;;;;;;;;;;;;;;;1040640;28;3859;-51
2023/03/02 01:10:30;;;;;;;;;;;;;;;;;;1043561;28;1689;-48
2023/03/02 01:11:00;;;;;;;;;;;;;;;;;;1043217;28;4145;-49
2023/03/02 01:11:30;;;;;;;;;;;;;;;;;;1043399;28;1667;-49
2023/03/02 01:12:01;;;;;;;;;;;;;;;;;;1042924;28;3835;-50
2023/03/02 01:12:31;;;;;;;;;;;;;;;;;;1042089;28;2811;-48
2023/03/02 01:13:02;;;;;;;;;;;;;;;;;;1043317;28;4138;-50
2023/03/02 01:13:32;;;;;;;;;;;;;;;;;;1042910;28;1929;-49
2023/03/02 01:14:02;;;;;;;;;;;;;;;;;;1042983;28;3982;-49
2023/03/02 01:14:33;;;;;;;;;;;;;;;;;;1043049;28;1973;-49
2023/03/02 01:15:03;;;;;;;;;;;;;;;;;;1042213;28;3889;-52
2023/03/02 01:15:33;;;;;;;;;;;;;;;;;;1037254;28;4235;-48
2023/03/02 01:16:04;;;;;;;;;;;;;;;;;;1038595;28;2847;-49
2023/03/02 01:16:34;;;;;;;;;;;;;;;;;;1038285;28;4051;-48
2023/03/02 01:17:05;;;;;;;;;;;;;;;;;;1038427;28;1726;-49
2023/03/02 01:17:35;;;;;;;;;;;;;;;;;;1042695;28;4062;-48
2023/03/02 01:18:06;;;;;;;;;;;;;;;;;;1042311;28;2675;-49
2023/03/02 01:18:37;;;;;;;;;;;;;;;;;;1043340;28;3849;-49
2023/03/02 01:19:07;;;;;;;;;;;;;;;;;;1041995;28;1710;-48
2023/03/02 01:19:38;;;;;;;;;;;;;;;;;;1042429;28;4089;-49
2023/03/02 01:20:09;;;;;;;;;;;;;;;;;;1042846;28;1811;-48
2023/03/02 01:20:40;;;;;;;;;;;;;;;;;;1040510;28;4120;-48
2023/03/02 01:21:11;;;;;;;;;;;;;;;;;;1038014;28;2818;-48
2023/03/02 01:21:42;;;;;;;;;;;;;;;;;;1039388;28;4069;-47
2023/03/02 01:22:12;;;;;;;;;;;;;;;;;;1041653;28;2894;-49
2023/03/02 01:22:43;;;;;;;;;;;;;;;;;;1042272;28;4067;-48
2023/03/02 01:23:13;;;;;;;;;;;;;;;;;;1043193;28;1904;-47
2023/03/02 01:23:43;;;;;;;;;;;;;;;;;;1041124;28;4011;-51
2023/03/02 01:24:14;;;;;;;;;;;;;;;;;;1039309;28;2906;-47
2023/03/02 01:24:44;;;;;;;;;;;;;;;;;;1037928;28;4007;-51
2023/03/02 01:25:14;;;;;;;;;;;;;;;;;;1036388;28;2675;-49
2023/03/02 01:25:44;;;;;;;;;;;;;;;;;;1037389;28;4013;-47
2023/03/02 01:26:15;;;;;;;;;;;;;;;;;;1034700;28;1775;-51
2023/03/02 01:26:45;;;;;;;;;;;;;;;;;;1033580;28;4088;-51
2023/03/02 01:27:15;;;;;;;;;;;;;;;;;;1034912;28;1721;-48
2023/03/02 01:27:45;;;;;;;;;;;;;;;;;;1033408;28;3878;-48
2023/03/02 01:28:16;;;;;;;;;;;;;;;;;;1038587;28;2846;-49
2023/03/02 01:28:46;;;;;;;;;;;;;;;;;;1040194;28;3775;-52
2023/03/02 01:29:16;;;;;;;;;;;;;;;;;;1043666;28;1684;-49
2023/03/02 01:29:46;;;;;;;;;;;;;;;;;;1041383;28;3890;-48
2023/03/02 01:30:17;;;;;;;;;;;;;;;;;;1039414;28;2793;-48
2023/03/02 01:30:47;;;;;;;;;;;;;;;;;;1041976;28;4030;-48
2023/03/02 01:31:18;;;;;;;;;;;;;;;;;;1042594;28;2916;-47
2023/03/02 01:31:48;;;;;;;;;;;;;;;;;;1042968;28;4012;-49
2023/03/02 01:32:18;;;;;;;;;;;;;;;;;;1042779;28;3073;-48
2023/03/02 01:32:48;;;;;;;;;;;;;;;;;;1042190;28;4034;-49
2023/03/02 01:33:20;;;;;;;;;;;;;;;;;;1044301;28;3048;-47
2023/03/02 01:33:50;;;;;;;;;;;;;;;;;;1040834;28;4225;-51
2023/03/02 01:34:21;;;;;;;;;;;;;;;;;;1042625;28;1874;-48
2023/03/02 01:34:51;;;;;;;;;;;;;;;;;;1041585;28;4067;-48
2023/03/02 01:35:21;;;;;;;;;;;;;;;;;;1042989;28;2048;-48
2023/03/02 01:35:51;;;;;;;;;;;;;;;;;;1040935;28;4017;-50
2023/03/02 01:36:22;;;;;;;;;;;;;;;;;;1042603;28;2787;-48
2023/03/02 01:36:53;;;;;;;;;;;;;;;;;;1042784;28;4973;-49
2023/03/02 01:37:23;;;;;;;;;;;;;;;;;;1042149;28;2824;-51
2023/03/02 01:37:53;;;;;;;;;;;;;;;;;;1043669;28;3850;-46
2023/03/02 01:38:23;;;;;;;;;;;;;;;;;;1043150;28;2678;-46
2023/03/02 01:38:54;;;;;;;;;;;;;;;;;;1041326;28;4388;-47
2023/03/02 01:39:24;;;;;;;;;;;;;;;;;;1040671;28;2896;-48
2023/03/02 01:39:54;;;;;;;;;;;;;;;;;;1042809;28;3771;-48
2023/03/02 01:40:24;;;;;;;;;;;;;;;;;;1041843;28;2668;-49
2023/03/02 01:40:55;;;;;;;;;;;;;;;;;;1041087;28;4064;-47
2023/03/02 01:41:25;;;;;;;;;;;;;;;;;;1042565;28;1984;-48
2023/03/02 01:41:56;;;;;;;;;;;;;;;;;;1042647;28;3893;-49
2023/03/02 01:42:26;;;;;;;;;;;;;;;;;;1040377;28;3073;-51
2023/03/02 01:43:01;;;;;;;;;;;;;;;;;;1038914;28;3897;-50
2023/03/02 01:43:31;;;;;;;;;;;;;;;;;;1037554;28;2801;-48
2023/03/02 01:44:01;;;;;;;;;;;;;;;;;;1042428;28;4007;-49
2023/03/02 01:44:31;;;;;;;;;;;;;;;;;;1041458;28;3404;-49
2023/03/02 01:45:02;;;;;;;;;;;;;;;;;;1042501;28;4051;-49
2023/03/02 01:45:38;;;;;;;;;;;;;;;;;;1042125;28;2514;-47
2023/03/02 01:46:15;;;;;;;;;;;;;;;;;;1042685;28;3823;-49
2023/03/02 01:46:51;;;;;;;;;;;;;;;;;;1042123;28;3926;-49
2023/03/02 01:47:22;;;;;;;;;;;;;;;;;;1042572;28;2012;-52
2023/03/02 01:47:52;;;;;;;;;;;;;;;;;;1041373;28;4057;-48
2023/03/02 01:48:43;;;;;;;;;;;;;;;;;;1042684;28;2546;-48
2023/03/02 01:49:14;;;;;;;;;;;;;;;;;;1042208;28;4044;-50
2023/03/02 01:50:05;;;;;;;;;;;;;;;;;;1041310;28;4214;-49
2023/03/02 01:50:35;;;;;;;;;;;;;;;;;;1040225;28;3941;-48
2023/03/02 01:51:06;;;;;;;;;;;;;;;;;;1042261;28;2776;-51
2023/03/02 01:51:39;;;;;;;;;;;;;;;;;;1042912;28;3795;-49
2023/03/02 01:52:11;;;;;;;;;;;;;;;;;;1042738;28;1924;-49
2023/03/02 01:52:41;;;;;;;;;;;;;;;;;;1042552;28;3996;-48
2023/03/02 01:53:12;;;;;;;;;;;;;;;;;;1042921;28;1669;-48
2023/03/02 01:53:45;;;;;;;;;;;;;;;;;;1042646;28;4060;-51
2023/03/02 01:54:21;;;;;;;;;;;;;;;;;;1043360;28;1687;-51
2023/03/02 01:54:52;;;;;;;;;;;;;;;;;;1042029;28;4013;-48
2023/03/02 01:55:24;;;;;;;;;;;;;;;;;;1042583;28;2955;-47
2023/03/02 01:55:55;;;;;;;;;;;;;;;;;;1040780;28;3946;-50
2023/03/02 01:56:28;;;;;;;;;;;;;;;;;;1042039;28;2741;-48
2023/03/02 01:56:59;;;;;;;;;;;;;;;;;;1036579;28;4065;-50
2023/03/02 01:57:33;;;;;;;;;;;;;;;;;;1039003;28;1827;-50
2023/03/02 01:58:04;;;;;;;;;;;;;;;;;;1037084;28;4232;-49
2023/03/02 01:58:35;;;;;;;;;;;;;;;;;;1038171;28;4017;-47
2023/03/02 01:59:08;;;;;;;;;;;;;;;;;;1042100;28;2341;-49
2023/03/02 01:59:39;;;;;;;;;;;;;;;;;;1041502;28;4062;-48
2023/03/02 02:00:11;;;;;;;;;;;;;;;;;;1043316;28;1667;-48
2023/03/02 02:00:43;;;;;;;;;;;;;;;;;;1043146;28;4370;-48
2023/03/02 02:01:14;;;;;;;;;;;;;;;;;;1042672;28;2802;-47
2023/03/02 02:01:46;;;;;;;;;;;;;;;;;;1042478;28;3965;-49
2023/03/02 02:02:16;;;;;;;;;;;;;;;;;;1044126;28;1714;-50
2023/03/02 02:02:47;;;;;;;;;;;;;;;;;;1043142;28;4054;-48
2023/03/02 02:03:20;;;;;;;;;;;;;;;;;;1043062;28;1647;-48
2023/03/02 02:03:51;;;;;;;;;;;;;;;;;;1040535;28;4031;-48
2023/03/02 02:04:22;;;;;;;;;;;;;;;;;;1039357;28;1918;-48
2023/03/02 02:04:53;;;;;;;;;;;;;;;;;;1041150;28;4117;-49
2023/03/02 02:05:25;;;;;;;;;;;;;;;;;;1042639;28;2537;-48
2023/03/02 02:06:07;;;;;;;;;;;;;;;;;;1043700;28;4026;-48
2023/03/02 02:06:40;;;;;;;;;;;;;;;;;;1042013;28;4091;-49
2023/03/02 02:07:10;;;;;;;;;;;;;;;;;;1043122;28;1742;-48
2023/03/02 02:07:41;;;;;;;;;;;;;;;;;;1041191;28;4056;-50
2023/03/02 02:08:12;;;;;;;;;;;;;;;;;;1042074;28;2821;-50
2023/03/02 02:08:43;;;;;;;;;;;;;;;;;;1042805;28;3837;-49
2023/03/02 02:09:15;;;;;;;;;;;;;;;;;;1042776;28;1624;-48
2023/03/02 02:09:46;;;;;;;;;;;;;;;;;;1042368;28;3877;-49
2023/03/02 02:10:17;;;;;;;;;;;;;;;;;;1042038;28;2724;-49
2023/03/02 02:10:47;;;;;;;;;;;;;;;;;;1041602;28;3881;-49
2023/03/02 02:11:18;;;;;;;;;;;;;;;;;;1042941;28;3045;-48
2023/03/02 02:11:48;;;;;;;;;;;;;;;;;;1042995;28;4996;-50
2023/03/02 02:12:20;;;;;;;;;;;;;;;;;;1042565;28;3417;-49
2023/03/02 02:12:50;;;;;;;;;;;;;;;;;;1040371;28;4062;-48
2023/03/02 02:13:20;;;;;;;;;;;;;;;;;;1042583;28;2248;-49
2023/03/02 02:13:56;;;;;;;;;;;;;;;;;;1041701;28;4038;-50
2023/03/02 02:14:26;;;;;;;;;;;;;;;;;;1042808;28;1766;-52
2023/03/02 02:14:59;;;;;;;;;;;;;;;;;;1042704;28;3949;-49
2023/03/02 02:15:29;;;;;;;;;;;;;;;;;;1041796;28;1811;-47
2023/03/02 02:16:00;;;;;;;;;;;;;;;;;;1042308;28;3832;-49
2023/03/02 02:16:31;;;;;;;;;;;;;;;;;;1043139;28;1852;-49
2023/03/02 02:17:01;;;;;;;;;;;;;;;;;;1041339;28;3875;-47
2023/03/02 02:17:32;;;;;;;;;;;;;;;;;;1043332;28;1697;-48
2023/03/02 02:18:02;;;;;;;;;;;;;;;;;;1040606;28;3988;-49
2023/03/02 02:18:34;;;;;;;;;;;;;;;;;;1042433;28;2767;-48
2023/03/02 02:19:11;;;;;;;;;;;;;;;;;;1042783;28;3904;-49
2023/03/02 02:19:48;;;;;;;;;;;;;;;;;;1042252;28;3933;-48
2023/03/02 02:20:32;;;;;;;;;;;;;;;;;;1041793;28;2889;-50
2023/03/02 02:21:03;;;;;;;;;;;;;;;;;;1042003;28;3919;-50
2023/03/02 02:21:34;;;;;;;;;;;;;;;;;;1041622;28;3889;-47
2023/03/02 02:22:04;;;;;;;;;;;;;;;;;;1041398;28;2889;-48
2023/03/02 02:22:53;;;;;;;;;;;;;;;;;;1042159;28;4107;-48
2023/03/02 02:23:28;;;;;;;;;;;;;;;;;;1040859;28;2933;-50
2023/03/02 02:23:58;;;;;;;;;;;;;;;;;;1037307;28;4068;-50
2023/03/02 02:24:49;;;;;;;;;;;;;;;;;;1038189;28;2314;-49
2023/03/02 02:25:38;;;;;;;;;;;;;;;;;;1036033;28;3937;-48
2023/03/02 02:26:22;;;;;;;;;;;;;;;;;;1041209;28;3996;-50
2023/03/02 02:26:53;;;;;;;;;;;;;;;;;;1039753;28;4043;-49
2023/03/02 02:27:28;;;;;;;;;;;;;;;;;;1042908;28;2771;-49
2023/03/02 02:27:59;;;;;;;;;;;;;;;;;;1042598;28;4014;-47
2023/03/02 02:28:32;;;;;;;;;;;;;;;;;;1041394;28;2916;-50
2023/03/02 02:29:06;;;;;;;;;;;;;;;;;;1042678;28;3918;-47
2023/03/02 02:29:44;;;;;;;;;;;;;;;;;;1040181;28;3980;-49
2023/03/02 02:30:15;;;;;;;;;;;;;;;;;;1039901;28;2708;-48
2023/03/02 02:30:46;;;;;;;;;;;;;;;;;;1042555;28;4025;-49
2023/03/02 02:31:22;;;;;;;;;;;;;;;;;;1042632;28;1867;-48
2023/03/02 02:31:58;;;;;;;;;;;;;;;;;;1042279;28;3886;-51
2023/03/02 02:32:31;;;;;;;;;;;;;;;;;;1042803;28;1792;-49
2023/03/02 02:33:01;;;;;;;;;;;;;;;;;;1041183;28;4005;-48
2023/03/02 02:33:32;;;;;;;;;;;;;;;;;;1041951;28;1884;-49
2023/03/02 02:34:08;;;;;;;;;;;;;;;;;;1042224;28;3953;-51
2023/03/02 02:34:41;;;;;;;;;;;;;;;;;;1040167;28;4048;-49
2023/03/02 02:35:15;;;;;;;;;;;;;;;;;;1042936;28;2377;-48
2023/03/02 02:35:46;;;;;;;;;;;;;;;;;;1039905;28;4040;-48
2023/03/02 02:36:19;;;;;;;;;;;;;;;;;;1044657;28;2062;-49
2023/03/02 02:36:51;;;;;;;;;;;;;;;;;;1040515;28;4079;-49
2023/03/02 02:37:25;;;;;;;;;;;;;;;;;;1039994;28;2787;-48
2023/03/02 02:37:57;;;;;;;;;;;;;;;;;;1040409;28;3933;-49
2023/03/02 02:38:28;;;;;;;;;;;;;;;;;;1038508;28;3072;-50
2023/03/02 02:38:59;;;;;;;;;;;;;;;;;;1041054;28;4394;-49
2023/03/02 02:39:31;;;;;;;;;;;;;;;;;;1042440;28;2816;-49
2023/03/02 02:40:07;;;;;;;;;;;;;;;;;;1039921;28;3969;-48
2023/03/02 02:40:49;;;;;;;;;;;;;;;;;;1041923;28;3825;-51
2023/03/02 02:41:21;;;;;;;;;;;;;;;;;;1041645;28;2722;-48
2023/03/02 02:41:54;;;;;;;;;;;;;;;;;;1040603;28;4047;-49
2023/03/02 02:42:29;;;;;;;;;;;;;;;;;;1041474;28;3020;-48
2023/03/02 02:42:59;;;;;;;;;;;;;;;;;;1041465;28;3939;-47
2023/03/02 02:43:30;;;;;;;;;;;;;;;;;;1037612;28;2842;-48
2023/03/02 02:44:00;;;;;;;;;;;;;;;;;;1037772;28;4234;-49
2023/03/02 02:44:30;;;;;;;;;;;;;;;;;;1038764;28;1758;-48
2023/03/02 02:45:04;;;;;;;;;;;;;;;;;;1036271;28;4004;-48
2023/03/02 02:45:35;;;;;;;;;;;;;;;;;;1036569;28;3887;-47
2023/03/02 02:46:05;;;;;;;;;;;;;;;;;;1038099;28;1681;-47
2023/03/02 02:46:35;;;;;;;;;;;;;;;;;;1038180;28;4160;-48
2023/03/02 02:47:14;;;;;;;;;;;;;;;;;;1037283;28;2800;-48
2023/03/02 02:47:44;;;;;;;;;;;;;;;;;;1040168;28;4057;-49
2023/03/02 02:48:15;;;;;;;;;;;;;;;;;;1039936;28;2815;-48
2023/03/02 02:48:45;;;;;;;;;;;;;;;;;;1042554;28;4045;-48
2023/03/02 02:49:36;;;;;;;;;;;;;;;;;;1042414;28;2295;-48
2023/03/02 02:50:09;;;;;;;;;;;;;;;;;;1040648;28;3896;-48
2023/03/02 02:50:39;;;;;;;;;;;;;;;;;;1041297;28;3868;-50
2023/03/02 02:51:15;;;;;;;;;;;;;;;;;;1041874;28;1851;-49
2023/03/02 02:51:46;;;;;;;;;;;;;;;;;;1041819;28;4151;-48
2023/03/02 02:52:18;;;;;;;;;;;;;;;;;;1043089;28;1902;-50
2023/03/02 02:52:51;;;;;;;;;;;;;;;;;;1040639;28;4020;-50
2023/03/02 02:53:25;;;;;;;;;;;;;;;;;;1040867;28;2275;-48
2023/03/02 02:54:00;;;;;;;;;;;;;;;;;;1042555;28;4010;-48
2023/03/02 02:54:31;;;;;;;;;;;;;;;;;;1038470;28;2340;-47
2023/03/02 02:55:01;;;;;;;;;;;;;;;;;;1037078;28;4885;-50
2023/03/02 02:55:33;;;;;;;;;;;;;;;;;;1038140;28;2721;-48
2023/03/02 02:56:05;;;;;;;;;;;;;;;;;;1038581;28;4015;-48
2023/03/02 02:56:37;;;;;;;;;;;;;;;;;;1042219;28;4053;-49
2023/03/02 02:57:09;;;;;;;;;;;;;;;;;;1041979;28;2996;-48
2023/03/02 02:57:40;;;;;;;;;;;;;;;;;;1040438;28;4155;-48
2023/03/02 02:58:28;;;;;;;;;;;;;;;;;;1042208;28;3020;-48
2023/03/02 02:59:09;;;;;;;;;;;;;;;;;;1041688;28;3960;-49
2023/03/02 02:59:42;;;;;;;;;;;;;;;;;;1040134;28;4048;-49
2023/03/02 03:00:15;;;;;;;;;;;;;;;;;;1041561;28;2572;-49
2023/03/02 03:00:45;;;;;;;;;;;;;;;;;;1039745;28;4958;-48
2023/03/02 03:01:17;;;;;;;;;;;;;;;;;;1042545;28;2768;-49
2023/03/02 03:01:48;;;;;;;;;;;;;;;;;;1041589;28;4067;-49
2023/03/02 03:02:23;;;;;;;;;;;;;;;;;;1042085;28;2817;-50
2023/03/02 03:02:59;;;;;;;;;;;;;;;;;;1041198;28;4017;-50
2023/03/02 03:03:32;;;;;;;;;;;;;;;;;;1042515;28;2904;-48
2023/03/02 03:04:03;;;;;;;;;;;;;;;;;;1042215;28;4844;-49
2023/03/02 03:04:34;;;;;;;;;;;;;;;;;;1042668;28;3879;-47
2023/03/02 03:05:04;;;;;;;;;;;;;;;;;;1042426;28;2786;-50
2023/03/02 03:05:35;;;;;;;;;;;;;;;;;;1040563;28;4034;-49
2023/03/02 03:06:07;;;;;;;;;;;;;;;;;;1042347;28;2293;-50
2023/03/02 03:06:47;;;;;;;;;;;;;;;;;;1041879;28;3890;-47
2023/03/02 03:07:22;;;;;;;;;;;;;;;;;;1041261;28;2434;-52
2023/03/02 03:08:04;;;;;;;;;;;;;;;;;;1042194;28;4043;-49
2023/03/02 03:08:54;;;;;;;;;;;;;;;;;;1041267;28;4038;-48
2023/03/02 03:09:25;;;;;;;;;;;;;;;;;;1041423;28;2804;-49
2023/03/02 03:10:14;;;;;;;;;;;;;;;;;;1041590;28;4998;-48
2023/03/02 03:10:45;;;;;;;;;;;;;;;;;;1040809;28;3776;-50
2023/03/02 03:11:18;;;;;;;;;;;;;;;;;;1043160;28;1732;-48
2023/03/02 03:11:50;;;;;;;;;;;;;;;;;;1041915;28;3951;-48
2023/03/02 03:12:21;;;;;;;;;;;;;;;;;;1044335;28;1701;-50
2023/03/02 03:12:52;;;;;;;;;;;;;;;;;;1040370;28;3857;-49
2023/03/02 03:13:22;;;;;;;;;;;;;;;;;;1041620;28;2683;-48
2023/03/02 03:13:54;;;;;;;;;;;;;;;;;;1040265;28;4032;-51
2023/03/02 03:14:31;;;;;;;;;;;;;;;;;;1041046;28;2978;-47
2023/03/02 03:15:01;;;;;;;;;;;;;;;;;;1041071;28;4005;-48
2023/03/02 03:15:31;;;;;;;;;;;;;;;;;;1042260;28;2218;-48
2023/03/02 03:16:02;;;;;;;;;;;;;;;;;;1041799;28;3987;-49
2023/03/02 03:16:33;;;;;;;;;;;;;;;;;;1042368;28;2284;-48
2023/03/02 03:17:10;;;;;;;;;;;;;;;;;;1042388;28;3718;-47
2023/03/02 03:17:45;;;;;;;;;;;;;;;;;;1036698;28;3891;-49
2023/03/02 03:18:21;;;;;;;;;;;;;;;;;;1037345;28;2803;-49
2023/03/02 03:18:51;;;;;;;;;;;;;;;;;;1037293;28;3988;-50
2023/03/02 03:19:23;;;;;;;;;;;;;;;;;;1038565;28;2870;-48
2023/03/02 03:19:54;;;;;;;;;;;;;;;;;;1042443;28;4098;-52
2023/03/02 03:20:25;;;;;;;;;;;;;;;;;;1041655;28;2841;-47
2023/03/02 03:20:55;;;;;;;;;;;;;;;;;;1039001;28;4124;-52
2023/03/02 03:21:25;;;;;;;;;;;;;;;;;;1042153;28;2648;-50
2023/03/02 03:22:00;;;;;;;;;;;;;;;;;;1041500;28;4019;-48
2023/03/02 03:22:32;;;;;;;;;;;;;;;;;;1041710;28;2462;-48
2023/03/02 03:23:02;;;;;;;;;;;;;;;;;;1033274;28;4014;-52
2023/03/02 03:23:36;;;;;;;;;;;;;;;;;;1032224;28;3090;-50
2023/03/02 03:24:07;;;;;;;;;;;;;;;;;;1036970;28;3918;-48
2023/03/02 03:24:38;;;;;;;;;;;;;;;;;;1037119;28;4031;-50
2023/03/02 03:25:08;;;;;;;;;;;;;;;;;;1040347;28;2822;-48
2023/03/02 03:25:39;;;;;;;;;;;;;;;;;;1039223;28;4045;-48
2023/03/02 03:26:09;;;;;;;;;;;;;;;;;;1042364;28;3046;-49
2023/03/02 03:26:39;;;;;;;;;;;;;;;;;;1041915;28;4135;-48
2023/03/02 03:27:10;;;;;;;;;;;;;;;;;;1041545;28;3048;-47
2023/03/02 03:27:42;;;;;;;;;;;;;;;;;;1042672;28;4036;-51
2023/03/02 03:28:12;;;;;;;;;;;;;;;;;;1041810;28;2702;-51
2023/03/02 03:28:42;;;;;;;;;;;;;;;;;;1040534;28;4017;-49
2023/03/02 03:29:13;;;;;;;;;;;;;;;;;;1042698;28;1956;-50
2023/03/02 03:29:46;;;;;;;;;;;;;;;;;;1040984;28;4031;-49
2023/03/02 03:30:17;;;;;;;;;;;;;;;;;;1040214;28;2905;-49
2023/03/02 03:30:47;;;;;;;;;;;;;;;;;;1041344;28;3910;-52
2023/03/02 03:31:17;;;;;;;;;;;;;;;;;;1038420;28;2822;-51
2023/03/02 03:31:47;;;;;;;;;;;;;;;;;;1040243;28;3934;-48
2023/03/02 03:32:18;;;;;;;;;;;;;;;;;;1043193;28;1682;-48
2023/03/02 03:32:49;;;;;;;;;;;;;;;;;;1041492;28;3990;-47
2023/03/02 03:33:19;;;;;;;;;;;;;;;;;;1041709;28;1795;-48
2023/03/02 03:33:49;;;;;;;;;;;;;;;;;;1041667;28;4045;-49
2023/03/02 03:34:20;;;;;;;;;;;;;;;;;;1043102;28;2776;-52
2023/03/02 03:34:50;;;;;;;;;;;;;;;;;;1042587;28;5070;-49
2023/03/02 03:35:21;;;;;;;;;;;;;;;;;;1043146;28;1603;-48
2023/03/02 03:35:51;;;;;;;;;;;;;;;;;;1041179;28;4035;-50
2023/03/02 03:36:22;;;;;;;;;;;;;;;;;;1043183;28;1740;-48
2023/03/02 03:36:52;;;;;;;;;;;;;;;;;;1040112;28;4040;-47
2023/03/02 03:37:22;;;;;;;;;;;;;;;;;;1043145;28;1631;-50
2023/03/02 03:37:53;;;;;;;;;;;;;;;;;;1041721;28;3932;-49
2023/03/02 03:38:23;;;;;;;;;;;;;;;;;;1037638;28;2839;-47
2023/03/02 03:38:54;;;;;;;;;;;;;;;;;;1035140;28;4029;-48
2023/03/02 03:39:24;;;;;;;;;;;;;;;;;;1037736;28;2800;-49
2023/03/02 03:39:54;;;;;;;;;;;;;;;;;;1036841;28;4007;-49
2023/03/02 03:40:24;;;;;;;;;;;;;;;;;;1041316;28;2794;-49
2023/03/02 03:40:55;;;;;;;;;;;;;;;;;;1040051;28;4407;-48
2023/03/02 03:41:25;;;;;;;;;;;;;;;;;;1042152;28;2856;-48